createdAt,value
2019-01-19T00:02:22.314Z,-1.80
2019-01-19T00:05:37.597Z,-1.90
2019-01-19T00:08:46.878Z,-2.00
2019-01-19T00:12:02.400Z,-2.00
2019-01-19T00:14:39.104Z,-2.00
2019-01-19T00:17:39.115Z,-2.00
2019-01-19T00:20:52.857Z,-2.00
2019-01-19T00:23:57.940Z,-2.00
2019-01-19T00:26:54.023Z,-2.00
2019-01-19T00:29:57.525Z,-1.90
2019-01-19T00:33:03.099Z,-1.90
2019-01-19T00:36:12.070Z,-1.80
2019-01-19T00:39:14.137Z,-1.80
2019-01-19T00:42:35.267Z,-1.90
2019-01-19T00:45:40.575Z,-1.90
2019-01-19T00:48:38.861Z,-2.00
2019-01-19T00:51:48.250Z,-2.00
2019-01-19T00:54:39.458Z,-2.00
2019-01-19T00:57:49.169Z,-2.00
2019-01-19T01:00:28.959Z,-1.90
2019-01-19T01:03:39.028Z,-1.80
2019-01-19T01:06:50.544Z,-1.80
2019-01-19T01:09:56.845Z,-1.70
2019-01-19T01:13:04.961Z,-1.70
2019-01-19T01:16:19.115Z,-1.70
2019-01-19T01:19:25.881Z,-1.70
2019-01-19T01:22:34.647Z,-1.80
2019-01-19T01:25:50.487Z,-1.80
2019-01-19T01:28:50.454Z,-1.90
2019-01-19T01:31:55.073Z,-1.90
2019-01-19T01:34:52.353Z,-2.00
2019-01-19T01:37:35.087Z,-1.90
2019-01-19T01:40:31.898Z,-2.00
2019-01-19T01:43:18.911Z,-2.00
2019-01-19T01:46:36.972Z,-2.10
2019-01-19T01:49:38.308Z,-2.10
2019-01-19T01:52:50.561Z,-2.20
2019-01-19T01:56:01.638Z,-2.20
2019-01-19T01:58:57.921Z,-2.20
2019-01-19T02:01:56.528Z,-2.30
2019-01-19T02:05:02.811Z,-2.30
2019-01-19T02:08:01.516Z,-2.20
2019-01-19T02:11:27.639Z,-2.20
2019-01-19T02:14:21.854Z,-2.20
2019-01-19T02:17:48.552Z,-2.10
2019-01-19T02:21:16.383Z,-2.00
2019-01-19T02:24:17.666Z,-2.00
2019-01-19T02:27:33.372Z,-2.00
2019-01-19T02:30:58.933Z,-2.00
2019-01-19T02:33:50.760Z,-2.00
2019-01-19T02:36:53.850Z,-1.90
2019-01-19T02:39:51.139Z,-2.00
2019-01-19T02:42:32.985Z,-1.90
2019-01-19T02:46:00.239Z,-1.90
2019-01-19T02:49:07.437Z,-1.90
2019-01-19T02:52:10.207Z,-1.90
2019-01-19T02:55:09.874Z,-1.90
2019-01-19T02:58:12.120Z,-2.00
2019-01-19T03:01:18.487Z,-2.00
2019-01-19T03:04:18.036Z,-2.10
2019-01-19T03:06:58.277Z,-2.10
2019-01-19T03:10:20.386Z,-2.20
2019-01-19T03:13:40.917Z,-2.20
2019-01-19T03:16:45.838Z,-2.20
2019-01-19T03:20:01.502Z,-2.20
2019-01-19T03:23:00.274Z,-2.20
2019-01-19T03:26:05.712Z,-2.30
2019-01-19T03:29:14.310Z,-2.30
2019-01-19T03:32:47.061Z,-2.30
2019-01-19T03:35:54.972Z,-2.30
2019-01-19T03:38:42.812Z,-2.30
2019-01-19T03:41:47.137Z,-2.40
2019-01-19T03:45:01.666Z,-2.40
2019-01-19T03:48:20.253Z,-2.40
2019-01-19T03:51:19.276Z,-2.40
2019-01-19T03:54:40.751Z,-2.40
2019-01-19T03:57:45.995Z,-2.40
2019-01-19T04:00:47.315Z,-2.40
2019-01-19T04:03:52.256Z,-2.50
2019-01-19T04:06:47.302Z,-2.50
2019-01-19T04:09:53.883Z,-2.50
2019-01-19T04:13:01.817Z,-2.60
2019-01-19T04:15:49.763Z,-2.60
2019-01-19T04:18:39.090Z,-2.60
2019-01-19T04:21:41.148Z,-2.70
2019-01-19T04:24:22.668Z,-2.70
2019-01-19T04:26:55.319Z,-2.60
2019-01-19T04:29:24.807Z,-2.50
2019-01-19T04:31:54.407Z,-2.50
2019-01-19T04:34:25.281Z,-2.40
2019-01-19T04:36:55.936Z,-2.40
2019-01-19T04:39:25.419Z,-2.40
2019-01-19T04:41:55.879Z,-2.40
2019-01-19T04:44:27.298Z,-2.40
2019-01-19T04:46:58.682Z,-2.40
2019-01-19T04:49:33.345Z,-2.30
2019-01-19T04:52:02.914Z,-2.40
2019-01-19T04:54:33.417Z,-2.30
2019-01-19T04:57:02.844Z,-2.30
2019-01-19T04:59:37.445Z,-2.30
2019-01-19T05:02:13.937Z,-2.30
2019-01-19T05:04:45.382Z,-2.30
2019-01-19T05:07:14.802Z,-2.30
2019-01-19T05:09:45.334Z,-2.30
2019-01-19T05:12:17.988Z,-2.30
2019-01-19T05:14:51.587Z,-2.30
2019-01-19T05:17:27.430Z,-2.30
2019-01-19T05:20:05.687Z,-2.20
2019-01-19T05:22:35.143Z,-2.20
2019-01-19T05:25:06.493Z,-2.20
2019-01-19T05:27:36.002Z,-2.20
2019-01-19T05:30:07.476Z,-2.20
2019-01-19T05:32:37.005Z,-2.20
2019-01-19T05:35:09.706Z,-2.20
2019-01-19T05:37:46.048Z,-2.20
2019-01-19T05:40:15.715Z,-2.20
2019-01-19T05:42:57.324Z,-2.20
2019-01-19T05:45:32.766Z,-2.20
2019-01-19T05:48:02.169Z,-2.30
2019-01-19T05:50:41.973Z,-2.30
2019-01-19T05:53:11.511Z,-2.30
2019-01-19T05:55:46.774Z,-2.30
2019-01-19T05:58:16.233Z,-2.30
2019-01-19T06:00:53.546Z,-2.30
2019-01-19T06:03:29.320Z,-2.30
2019-01-19T06:05:59.025Z,-2.30
2019-01-19T06:08:28.564Z,-2.30
2019-01-19T06:10:58.050Z,-2.30
2019-01-19T06:13:27.451Z,-2.30
2019-01-19T06:16:02.794Z,-2.30
2019-01-19T06:18:34.488Z,-2.20
2019-01-19T06:21:05.443Z,-2.20
2019-01-19T06:23:34.832Z,-2.30
2019-01-19T06:26:05.361Z,-2.30
2019-01-19T06:28:38.081Z,-2.30
2019-01-19T06:31:07.559Z,-2.40
2019-01-19T06:33:37.053Z,-2.40
2019-01-19T06:36:06.637Z,-2.40
2019-01-19T06:38:38.128Z,-2.40
2019-01-19T06:41:07.678Z,-2.40
2019-01-19T06:43:43.359Z,-2.40
2019-01-19T06:46:14.885Z,-2.40
2019-01-19T06:48:46.140Z,-2.30
2019-01-19T06:51:15.777Z,-2.30
2019-01-19T06:53:45.742Z,-2.40
2019-01-19T06:56:18.730Z,-2.30
2019-01-19T06:58:50.154Z,-2.30
2019-01-19T07:01:26.194Z,-2.40
2019-01-19T07:03:55.671Z,-2.40
2019-01-19T07:06:25.175Z,-2.40
2019-01-19T07:08:54.653Z,-2.40
2019-01-19T07:11:24.166Z,-2.40
2019-01-19T07:13:53.575Z,-2.40
2019-01-19T07:16:23.030Z,-2.40
2019-01-19T07:18:54.475Z,-2.40
2019-01-19T07:21:25.005Z,-2.40
2019-01-19T07:23:54.472Z,-2.30
2019-01-19T07:26:23.970Z,-2.30
2019-01-19T07:28:53.470Z,-2.30
2019-01-19T07:31:22.969Z,-2.20
2019-01-19T07:33:53.401Z,-2.20
2019-01-19T07:36:25.044Z,-2.20
2019-01-19T07:38:54.502Z,-2.10
2019-01-19T07:41:34.277Z,-2.10
2019-01-19T07:44:06.436Z,-2.10
2019-01-19T07:46:37.363Z,-2.00
2019-01-19T07:49:07.830Z,-1.90
2019-01-19T07:51:41.469Z,-1.90
2019-01-19T07:54:12.222Z,-1.80
2019-01-19T07:56:42.278Z,-1.80
2019-01-19T07:59:11.675Z,-1.90
2019-01-19T08:01:41.261Z,-1.80
2019-01-19T08:04:18.717Z,-1.70
2019-01-19T08:06:49.418Z,-1.80
2019-01-19T08:09:18.948Z,-1.90
2019-01-19T08:11:49.378Z,-1.80
2019-01-19T08:14:21.444Z,-1.70
2019-01-19T08:16:52.009Z,-1.60
2019-01-19T08:19:23.508Z,-1.60
2019-01-19T08:21:53.981Z,-1.60
2019-01-19T08:24:25.466Z,-1.50
2019-01-19T08:26:55.005Z,-1.30
2019-01-19T08:29:24.486Z,-1.30
2019-01-19T08:31:54.254Z,-1.20
2019-01-19T08:34:23.852Z,-1.20
2019-01-19T08:36:57.383Z,-1.10
2019-01-19T08:39:28.806Z,-1.00
2019-01-19T08:41:58.376Z,-0.90
2019-01-19T08:44:29.978Z,-0.80
2019-01-19T08:46:59.457Z,-0.70
2019-01-19T08:49:30.854Z,-0.70
2019-01-19T08:52:01.297Z,-0.60
2019-01-19T08:54:36.433Z,-0.40
2019-01-19T08:57:06.941Z,-0.40
2019-01-19T08:59:36.345Z,-0.30
2019-01-19T09:02:05.889Z,-0.30
2019-01-19T09:04:43.289Z,-0.20
2019-01-19T09:07:14.781Z,-0.20
2019-01-19T09:09:44.546Z,-0.10
2019-01-19T09:12:16.426Z,0.00
2019-01-19T09:14:47.765Z,0.00
2019-01-19T09:17:19.340Z,0.10
2019-01-19T09:19:52.193Z,0.20
2019-01-19T09:22:24.505Z,0.20
2019-01-19T09:24:56.074Z,0.30
2019-01-19T09:27:28.251Z,0.30
2019-01-19T09:29:59.074Z,0.40
2019-01-19T09:32:30.078Z,0.40
2019-01-19T09:35:06.474Z,0.50
2019-01-19T09:37:40.959Z,0.50
2019-01-19T09:40:12.301Z,0.60
2019-01-19T09:42:43.133Z,0.60
2019-01-19T09:45:17.509Z,0.70
2019-01-19T09:47:48.416Z,0.70
2019-01-19T09:50:41.537Z,0.70
2019-01-19T09:53:12.287Z,0.80
2019-01-19T09:55:43.495Z,0.90
2019-01-19T09:58:16.385Z,1.00
2019-01-19T10:00:48.463Z,1.10
2019-01-19T10:03:17.979Z,1.20
2019-01-19T10:05:47.497Z,1.20
2019-01-19T10:08:16.928Z,1.30
2019-01-19T10:10:47.411Z,1.30
2019-01-19T10:13:23.842Z,1.50
2019-01-19T10:15:54.416Z,1.50
2019-01-19T10:18:30.613Z,1.50
2019-01-19T10:21:11.743Z,1.60
2019-01-19T10:23:53.191Z,1.70
2019-01-19T10:26:23.671Z,1.80
2019-01-19T10:28:53.605Z,1.90
2019-01-19T10:31:25.051Z,2.00
2019-01-19T10:34:03.338Z,1.90
2019-01-19T10:36:32.807Z,2.00
2019-01-19T10:39:09.988Z,2.00
2019-01-19T10:41:41.601Z,2.20
2019-01-19T10:44:12.135Z,2.30
2019-01-19T10:46:41.769Z,2.50
2019-01-19T10:49:15.427Z,2.60
2019-01-19T10:51:50.682Z,2.50
2019-01-19T10:54:20.172Z,2.60
2019-01-19T10:56:59.463Z,2.70
2019-01-19T10:59:28.941Z,2.70
2019-01-19T11:01:58.352Z,2.80
2019-01-19T11:04:27.785Z,2.80
2019-01-19T11:06:57.240Z,2.90
2019-01-19T11:09:34.690Z,2.80
2019-01-19T11:12:04.331Z,2.90
2019-01-19T11:14:41.762Z,3.10
2019-01-19T11:17:11.255Z,3.10
2019-01-19T11:19:40.794Z,3.10
2019-01-19T11:22:16.340Z,3.10
2019-01-19T11:24:45.837Z,3.10
2019-01-19T11:27:17.782Z,3.20
2019-01-19T11:29:49.316Z,3.20
2019-01-19T11:32:18.712Z,3.40
2019-01-19T11:34:48.184Z,3.50
2019-01-19T11:37:18.673Z,3.60
2019-01-19T11:39:49.255Z,3.70
2019-01-19T11:42:19.752Z,3.60
2019-01-19T11:44:49.261Z,3.60
2019-01-19T11:47:20.881Z,3.80
2019-01-19T11:49:50.338Z,4.20
2019-01-19T11:52:19.796Z,4.30
2019-01-19T11:54:56.277Z,4.30
2019-01-19T11:57:25.789Z,4.40
2019-01-19T11:59:55.277Z,4.40
2019-01-19T12:02:27.977Z,4.60
2019-01-19T12:04:58.419Z,4.80
2019-01-19T12:07:33.652Z,5.00
2019-01-19T12:10:07.073Z,5.50
2019-01-19T12:12:38.535Z,5.90
2019-01-19T12:15:09.247Z,6.30
2019-01-19T12:17:39.977Z,6.50
2019-01-19T12:20:13.513Z,6.40
2019-01-19T12:22:42.986Z,6.30
2019-01-19T12:25:13.769Z,6.20
2019-01-19T12:27:44.246Z,6.00
2019-01-19T12:30:17.199Z,5.90
2019-01-19T12:32:46.845Z,5.80
2019-01-19T12:35:16.878Z,5.80
2019-01-19T12:37:47.452Z,5.80
2019-01-19T12:40:18.789Z,5.40
